• Join FlightAware (Why Join?)
  • Login
  • US Flag 
12:05PM EDT


 

Airport Tracker/Info


-or-


 

Live Flight TrackerFlight Track Log ✈ N80HB ✈ 23-Apr-2014 ✈ CYYR - BIKF / KEF

Flight Track Log - Related Links

Times and Time Zones

All times are in EDT time to prevent confusion due to time zone crossing. See the N80HB flight status page for this flight to view local times or setup timezone preferences in your user account.

Time Position Orientation Groundspeed Altitude Reporting Facility
EDT Latitude Longitude Course Direction KTS MPH feet Rate Location/Type
08:03AM 53.3333 -60.3667 61° Northeast 160 184 1,300  Level Gander Center
08:04AM 53.3667 -60.2667 63° Northeast 250 288 4,500 3,180 Climbing Gander Center
08:05AM 53.4000 -60.1833 56° Northeast 260 299 7,700 3,180 Climbing Gander Center
08:06AM 53.4500 -60.1333 31° Northeast 260 299 10,900 3,180 Climbing Gander Center
08:08AM 53.5579 -60.0257 31° Northeast  Level FlightAware Approximate
08:15AM 54.0589 -59.1225 42° Northeast  Level Estimated
08:16AM 54.1558 -59.0554 22° Northeast  Level FlightAware Approximate
08:17AM 54.2266 -58.9240 41° Northeast  Level Estimated
08:18AM 54.2972 -58.7921 43° Northeast  Level Estimated
08:19AM 54.3677 -58.6597 41° Northeast  Level Estimated
08:20AM 54.4381 -58.5269 41° Northeast  Level Estimated
08:21AM 54.5326 -58.4502 25° Northeast  Level FlightAware Approximate
08:22AM 54.6272 -58.3732 25° Northeast  Level FlightAware Approximate
08:23AM 54.6969 -58.2386 43° Northeast  Level Estimated
08:24AM 54.7793 -58.1271 38° Northeast  Level FlightAware Approximate
08:25AM 54.8615 -58.0151 38° Northeast  Level FlightAware Approximate
08:26AM 54.9437 -57.9027 38° Northeast  Level FlightAware Approximate
08:27AM 55.0127 -57.7659 45° Northeast  Level Estimated
08:28AM 55.0816 -57.6286 43° Northeast  Level Estimated
08:29AM 55.1628 -57.5135 39° Northeast  Level FlightAware Approximate
08:30AM 55.2439 -57.3980 39° Northeast  Level FlightAware Approximate
08:31AM 55.3250 -57.2821 39° Northeast  Level FlightAware Approximate
08:32AM 55.3931 -57.1425 37° Northeast  Level Estimated
08:33AM 55.4610 -57.0025 54° Northeast  Level Estimated
08:34AM 55.5247 -56.8562 52° Northeast  Level FlightAware Approximate
08:35AM 55.5882 -56.7094 53° Northeast  Level FlightAware Approximate
08:36AM 55.6515 -56.5621 53° Northeast  Level FlightAware Approximate
08:37AM 55.7147 -56.4143 53° Northeast  Level FlightAware Approximate
08:38AM 55.7776 -56.2661 53° Northeast  Level FlightAware Approximate
08:39AM 55.8404 -56.1174 53° Northeast  Level FlightAware Approximate
08:40AM 55.9030 -55.9682 53° Northeast  Level FlightAware Approximate
08:41AM 55.9655 -55.8185 53° Northeast  Level FlightAware Approximate
08:42AM 56.0277 -55.6683 53° Northeast  Level FlightAware Approximate
08:43AM 56.0898 -55.5177 54° Northeast  Level FlightAware Approximate
08:44AM 56.1517 -55.3666 54° Northeast  Level FlightAware Approximate
08:45AM 56.2134 -55.2149 54° Northeast  Level FlightAware Approximate
08:46AM 56.2794 -55.0690 56° Northeast  Level Estimated
08:47AM 56.3380 -54.9129 56° Northeast  Level FlightAware Approximate
08:48AM 56.3963 -54.7563 56° Northeast  Level FlightAware Approximate
08:49AM 56.4545 -54.5993 56° Northeast  Level FlightAware Approximate
08:50AM 56.5125 -54.4417 56° Northeast  Level FlightAware Approximate
08:51AM 56.5703 -54.2837 56° Northeast  Level FlightAware Approximate
08:52AM 56.6278 -54.1253 57° Northeast  Level FlightAware Approximate
08:53AM 56.6852 -53.9663 57° Northeast  Level FlightAware Approximate
08:54AM 56.7424 -53.8068 57° Northeast  Level FlightAware Approximate
08:55AM 56.7994 -53.6469 57° Northeast  Level FlightAware Approximate
08:56AM 56.8561 -53.4864 57° Northeast  Level FlightAware Approximate
08:57AM 56.9127 -53.3255 57° Northeast  Level FlightAware Approximate
08:58AM 56.9690 -53.1641 57° Northeast  Level FlightAware Approximate
08:59AM 57.0252 -53.0022 57° Northeast  Level FlightAware Approximate
09:00AM 57.0811 -52.8398 58° Northeast  Level FlightAware Approximate
09:01AM 57.1368 -52.6769 58° Northeast  Level FlightAware Approximate
09:02AM 57.1923 -52.5136 58° Northeast  Level FlightAware Approximate
09:03AM 57.2476 -52.3497 58° Northeast  Level FlightAware Approximate
09:04AM 57.3027 -52.1854 58° Northeast  Level FlightAware Approximate
09:05AM 57.3576 -52.0205 58° Northeast  Level FlightAware Approximate
09:06AM 57.4122 -51.8552 58° Northeast  Level FlightAware Approximate
09:07AM 57.4666 -51.6894 59° Northeast  Level FlightAware Approximate
09:08AM 57.5209 -51.5231 59° Northeast  Level FlightAware Approximate
09:09AM 57.5749 -51.3563 59° Northeast  Level FlightAware Approximate
09:10AM 57.6286 -51.1889 59° Northeast  Level FlightAware Approximate
09:11AM 57.6822 -51.0211 59° Northeast  Level FlightAware Approximate
09:12AM 57.7355 -50.8529 59° Northeast  Level FlightAware Approximate
09:13AM 57.7886 -50.6841 59° Northeast  Level FlightAware Approximate
09:14AM 57.8415 -50.5148 60° Northeast  Level FlightAware Approximate
09:15AM 57.8942 -50.3450 60° Northeast  Level FlightAware Approximate
09:16AM 57.9466 -50.1747 60° Northeast  Level FlightAware Approximate
09:17AM 58.0079 -50.0150 55° Northeast  Level Estimated
09:18AM 58.0674 -49.8526 55° Northeast  Level FlightAware Approximate
09:19AM 58.1267 -49.6897 55° Northeast  Level FlightAware Approximate
09:20AM 58.1857 -49.5262 56° Northeast  Level FlightAware Approximate
09:21AM 58.2445 -49.3621 56° Northeast  Level FlightAware Approximate
09:22AM 58.3032 -49.1976 56° Northeast  Level FlightAware Approximate
09:23AM 58.3616 -49.0324 56° Northeast  Level FlightAware Approximate
09:24AM 58.4198 -48.8667 56° Northeast  Level FlightAware Approximate
09:25AM 58.4778 -48.7005 56° Northeast  Level FlightAware Approximate
09:26AM 58.5355 -48.5338 56° Northeast  Level FlightAware Approximate
09:27AM 58.5931 -48.3664 57° Northeast  Level FlightAware Approximate
09:28AM 58.6504 -48.1986 57° Northeast  Level FlightAware Approximate
09:29AM 58.7076 -48.0302 57° Northeast  Level FlightAware Approximate
09:30AM 58.7645 -47.8612 57° Northeast  Level FlightAware Approximate
09:31AM 58.8211 -47.6916 57° Northeast  Level FlightAware Approximate
09:32AM 58.8776 -47.5216 57° Northeast  Level FlightAware Approximate
09:33AM 58.9338 -47.3509 57° Northeast  Level FlightAware Approximate
09:34AM 58.9898 -47.1797 58° Northeast  Level FlightAware Approximate
09:35AM 59.0456 -47.0080 58° Northeast  Level FlightAware Approximate
09:36AM 59.1011 -46.8357 58° Northeast  Level FlightAware Approximate
09:37AM 59.1565 -46.6628 58° Northeast  Level FlightAware Approximate
09:38AM 59.2116 -46.4894 58° Northeast  Level FlightAware Approximate
09:39AM 59.2664 -46.3154 58° Northeast  Level FlightAware Approximate
09:40AM 59.3210 -46.1409 58° Northeast  Level FlightAware Approximate
09:41AM 59.3754 -45.9658 59° Northeast  Level FlightAware Approximate
09:42AM 59.4296 -45.7901 59° Northeast  Level FlightAware Approximate
09:43AM 59.4835 -45.6139 59° Northeast  Level FlightAware Approximate
09:44AM 59.5372 -45.4371 59° Northeast  Level FlightAware Approximate
09:45AM 59.5906 -45.2597 59° Northeast  Level FlightAware Approximate
09:46AM 59.6438 -45.0818 59° Northeast  Level FlightAware Approximate
09:47AM 59.6968 -44.9033 59° Northeast  Level FlightAware Approximate
09:48AM 59.7495 -44.7243 60° Northeast  Level FlightAware Approximate
09:49AM 59.8020 -44.5447 60° Northeast  Level FlightAware Approximate
09:50AM 59.8542 -44.3645 60° Northeast  Level FlightAware Approximate
09:51AM 59.9062 -44.1838 60° Northeast  Level FlightAware Approximate
09:52AM 59.9579 -44.0025 60° Northeast  Level FlightAware Approximate
09:53AM 60.0094 -43.8206 60° Northeast  Level FlightAware Approximate
09:54AM 60.0606 -43.6382 61° Northeast  Level FlightAware Approximate
09:55AM 60.1116 -43.4552 61° Northeast  Level FlightAware Approximate
09:56AM 60.1623 -43.2716 61° Northeast  Level FlightAware Approximate
09:57AM 60.2128 -43.0875 61° Northeast  Level FlightAware Approximate
09:58AM 60.2630 -42.9028 61° Northeast  Level FlightAware Approximate
09:59AM 60.3130 -42.7175 61° Northeast  Level FlightAware Approximate
10:00AM 60.3627 -42.5317 62° Northeast  Level FlightAware Approximate
10:01AM 60.4121 -42.3453 62° Northeast  Level FlightAware Approximate
10:02AM 60.4613 -42.1583 62° Northeast  Level FlightAware Approximate
10:03AM 60.5102 -41.9708 62° Northeast  Level FlightAware Approximate
10:04AM 60.5589 -41.7827 62° Northeast  Level FlightAware Approximate
10:05AM 60.6073 -41.5940 62° Northeast  Level FlightAware Approximate
10:06AM 60.6554 -41.4048 63° Northeast  Level FlightAware Approximate
10:07AM 60.7032 -41.2150 63° Northeast  Level FlightAware Approximate
10:08AM 60.7508 -41.0247 63° Northeast  Level FlightAware Approximate
10:09AM 60.7981 -40.8338 63° Northeast  Level FlightAware Approximate
10:10AM 60.8452 -40.6423 63° Northeast  Level FlightAware Approximate
10:11AM 60.8919 -40.4502 63° Northeast  Level FlightAware Approximate
10:12AM 60.9384 -40.2576 64° Northeast  Level FlightAware Approximate
10:13AM 60.9877 -40.0676 63° Northeast  Level Estimated
10:14AM 61.0357 -39.8760 63° Northeast  Level FlightAware Approximate
10:15AM 61.0835 -39.6839 63° Northeast  Level FlightAware Approximate
10:16AM 61.1310 -39.4912 63° Northeast  Level FlightAware Approximate
10:17AM 61.1782 -39.2979 63° Northeast  Level FlightAware Approximate
10:18AM 61.2252 -39.1040 63° Northeast  Level FlightAware Approximate
10:19AM 61.2719 -38.9095 63° Northeast  Level FlightAware Approximate
10:20AM 61.3183 -38.7145 64° Northeast  Level FlightAware Approximate
10:21AM 61.3644 -38.5189 64° Northeast  Level FlightAware Approximate
10:22AM 61.4102 -38.3227 64° Northeast  Level FlightAware Approximate
10:23AM 61.4558 -38.1260 64° Northeast  Level FlightAware Approximate
10:24AM 61.5011 -37.9286 64° Northeast  Level FlightAware Approximate
10:25AM 61.5461 -37.7307 64° Northeast  Level FlightAware Approximate
10:26AM 61.5908 -37.5323 65° Northeast  Level FlightAware Approximate
10:27AM 61.6352 -37.3332 65° Northeast  Level FlightAware Approximate
10:28AM 61.6793 -37.1336 65° Northeast  Level FlightAware Approximate
10:29AM 61.7231 -36.9334 65° Northeast  Level FlightAware Approximate
10:30AM 61.7667 -36.7326 65° Northeast  Level FlightAware Approximate
10:31AM 61.8099 -36.5313 65° Northeast  Level FlightAware Approximate
10:32AM 61.8528 -36.3294 66° East  Level FlightAware Approximate
10:33AM 61.8955 -36.1270 66° East  Level FlightAware Approximate
10:34AM 61.9378 -35.9240 66° East  Level FlightAware Approximate
10:35AM 61.9799 -35.7204 66° East  Level FlightAware Approximate
10:36AM 62.0216 -35.5162 66° East  Level FlightAware Approximate
10:37AM 62.0631 -35.3115 67° East  Level FlightAware Approximate
10:38AM 62.1043 -35.1063 67° East  Level FlightAware Approximate
10:39AM 62.1451 -34.9005 67° East  Level FlightAware Approximate
10:40AM 62.1856 -34.6941 67° East  Level FlightAware Approximate
10:41AM 62.2258 -34.4872 67° East  Level FlightAware Approximate
10:42AM 62.2658 -34.2797 67° East  Level FlightAware Approximate
10:43AM 62.3054 -34.0717 68° East  Level FlightAware Approximate
10:44AM 62.3447 -33.8631 68° East  Level FlightAware Approximate
10:45AM 62.3837 -33.6540 68° East  Level FlightAware Approximate
10:46AM 62.4223 -33.4444 68° East  Level FlightAware Approximate
10:47AM 62.4607 -33.2342 68° East  Level FlightAware Approximate
10:48AM 62.4987 -33.0235 69° East  Level FlightAware Approximate
10:49AM 62.5364 -32.8122 69° East  Level FlightAware Approximate
10:50AM 62.5738 -32.6004 69° East  Level FlightAware Approximate
10:51AM 62.6109 -32.3881 69° East  Level FlightAware Approximate
10:52AM 62.6477 -32.1752 69° East  Level FlightAware Approximate
10:53AM 62.6841 -31.9618 70° East  Level FlightAware Approximate
10:54AM 62.7202 -31.7479 70° East  Level FlightAware Approximate
10:55AM 62.7560 -31.5335 70° East  Level FlightAware Approximate
10:56AM 62.7915 -31.3185 70° East  Level FlightAware Approximate
10:57AM 62.8266 -31.1031 70° East  Level FlightAware Approximate
10:58AM 62.8614 -30.8871 70° East  Level FlightAware Approximate
10:59AM 62.8958 -30.6706 71° East  Level FlightAware Approximate
11:00AM 62.9300 -30.4536 71° East  Level FlightAware Approximate
11:01AM 62.9638 -30.2361 71° East  Level FlightAware Approximate
11:02AM 62.9995 -30.0199 80° East  Level Estimated
11:03AM 63.0349 -29.8031 69° East  Level Estimated
11:04AM 63.0681 -29.5844 71° East  Level FlightAware Approximate
11:05AM 63.1010 -29.3652 72° East  Level FlightAware Approximate
11:06AM 63.1335 -29.1455 72° East  Level FlightAware Approximate
11:07AM 63.1678 -28.9268 71° East  Level Estimated
11:08AM 63.2027 -28.7083 70° East  Level FlightAware Approximate
11:09AM 63.2373 -28.4894 71° East  Level FlightAware Approximate
11:10AM 63.2715 -28.2699 71° East  Level FlightAware Approximate
11:11AM 63.3054 -28.0499 71° East  Level FlightAware Approximate
11:12AM 63.3378 -27.8286 71° East  Level Estimated
11:13AM 63.3714 -27.6078 71° East  Level FlightAware Approximate
11:14AM 63.4047 -27.3866 71° East  Level FlightAware Approximate
11:15AM 63.4376 -27.1649 72° East  Level FlightAware Approximate
11:16AM 63.4683 -26.9413 77° East  Level Estimated
11:17AM 63.4987 -26.7173 70° East  Level Estimated
11:18AM 63.5288 -26.4928 70° East  Level Estimated
11:19AM 63.5613 -26.2698 72° East  Level FlightAware Approximate
11:20AM 63.5904 -26.0442 76° East  Level Estimated
11:21AM 63.6150 -25.8156 76° East  Level FlightAware Approximate
11:22AM 63.6392 -25.5867 77° East  Level FlightAware Approximate
11:23AM 63.6679 -25.3602 74° East  Level Estimated
11:24AM 63.6951 -25.1325 75° East  Level FlightAware Approximate
11:25AM 63.7219 -24.9044 75° East  Level FlightAware Approximate
11:26AM 63.7483 -24.6758 75° East  Level FlightAware Approximate
11:27AM 63.7760 -24.4478 72° East  Level Estimated
11:28AM 63.8063 -24.2213 73° East  Level FlightAware Approximate
11:29AM 63.8329 -23.9922 76° East  Level Estimated
11:30AM 63.8581 -23.7620 76° East  Level FlightAware Approximate
11:31AM 63.8829 -23.5314 76° East  Level FlightAware Approximate
11:32AM 63.9073 -23.3004 76° East  Level FlightAware Approximate
11:33AM 63.9335 -23.0702 80° East  Level Estimated
11:34AM 63.9508 -22.8355 80° East  Level FlightAware Approximate
11:35AM 63.9667 -22.6167 80° East  Level FlightAware Approximate
11:36AM 63.9850 -22.6056 15° North  Level Estimated
11:37AM 63.9850 -22.6056 North  Level Estimated
11:38AM 63.9850 -22.6056 North  Level Estimated
11:39AM 63.9850 -22.6056 North  Level Estimated
11:40AM 63.9850 -22.6056 North  Level Estimated
11:41AM 63.9850 -22.6056 North  Level Estimated
11:42AM 63.9850 -22.6056 North  Level Estimated
11:43AM 63.9850 -22.6056 North  Level Estimated
11:44AM 63.9850 -22.6056 North  Level Estimated
11:45AM 63.9850 -22.6056 North  Level Estimated
11:46AM 63.9850 -22.6056 North  Level Estimated
11:47AM 63.9850 -22.6056 North  Level Estimated
11:48AM 63.9850 -22.6056 North  Level Estimated
11:49AM 63.9850 -22.6056 North  Level Estimated
11:50AM 63.9850 -22.6056 North  Level Estimated
11:51AM 63.9850 -22.6056 North  Level Estimated